EGXZ

Details ICAO EGXZ
Name RAF Topcliffe
Region United Kingdom
Timezone Europe/London (UTC+1.0)
Plans Departing 4
Arriving 1
Stats Elevation 92 ft / 28 m (AMSL)
Location 54.205672° -1.381410°
Runways 2
Magnetic Variation 1.168° W
Sunrise 2018-05-25 03:48:27 UTC / 2018-05-25 04:48:27 Local
Sunset 2018-05-25 20:19:21 UTC / 2018-05-25 21:19:21 Local
Advertisement - Login to hide

Runways

ID Width Length Bearing (true) Bearing (mag) Surface Threshold Offset Overrun Length
03 151 ft / 46 m 6,089 ft / 1,856 m 21.78° 22.95° Asphalt 1,247 ft / 380 m 0 ft / 0 m
13 151 ft / 46 m 4,122 ft / 1,256 m 125.85° 127.02° Asphalt 0 ft / 0 m 0 ft / 0 m
21 151 ft / 46 m 6,089 ft / 1,856 m 201.79° 202.96° Asphalt 0 ft / 0 m 0 ft / 0 m
31 151 ft / 46 m 4,122 ft / 1,256 m 305.86° 307.03° Asphalt 1,037 ft / 316 m 0 ft / 0 m

Map

Weather


0- 5 10 15 20 25 30 35+ Temperature / ° C

Clouds and Precipitation
Forecast for 2018-05-25 18:00 UTC. Updated 3 hours ago

Ground ~20,000 ft ~40,000 ft Winds

METAR

EGXZ 251950Z AUTO 35012KT 4200 BR SCT027/// BKN070/// 12/11 Q1022 RERA

TAF

Not found

Frequencies

Tower 122.10 MHz Topcliffe Tower
Approach 125.00 MHz Topcliffe Approach
Warning: Do not use this data for real-world aviation or navigation. No guarantee of current accuracy is given.